sensor_id;sensor_type;location;lat;lon;timestamp;P1;durP1;ratioP1;P2;durP2;ratioP2
20381;SDS011;10350;51.280;12.400;2023-03-11T00:02:05;1.67;;;1.58;;
20381;SDS011;10350;51.280;12.400;2023-03-11T00:04:31;1.65;;;1.55;;
20381;SDS011;10350;51.280;12.400;2023-03-11T00:06:57;1.83;;;1.52;;
20381;SDS011;10350;51.280;12.400;2023-03-11T00:09:23;1.95;;;1.80;;
20381;SDS011;10350;51.280;12.400;2023-03-11T00:11:49;1.92;;;1.83;;
20381;SDS011;10350;51.280;12.400;2023-03-11T00:14:15;1.80;;;1.70;;
20381;SDS011;10350;51.280;12.400;2023-03-11T00:16:41;1.92;;;1.70;;
20381;SDS011;10350;51.280;12.400;2023-03-11T00:19:08;2.13;;;1.98;;
20381;SDS011;10350;51.280;12.400;2023-03-11T00:21:34;3.37;;;2.17;;
20381;SDS011;10350;51.280;12.400;2023-03-11T00:24:01;2.42;;;2.22;;
20381;SDS011;10350;51.280;12.400;2023-03-11T00:26:27;2.40;;;2.20;;
20381;SDS011;10350;51.280;12.400;2023-03-11T00:28:54;2.60;;;2.40;;
20381;SDS011;10350;51.280;12.400;2023-03-11T00:31:20;2.28;;;2.08;;
20381;SDS011;10350;51.280;12.400;2023-03-11T00:33:47;2.95;;;2.65;;
20381;SDS011;10350;51.280;12.400;2023-03-11T00:36:29;2.95;;;2.42;;
20381;SDS011;10350;51.280;12.400;2023-03-11T00:38:57;2.88;;;2.47;;
20381;SDS011;10350;51.280;12.400;2023-03-11T00:41:24;2.83;;;2.35;;
20381;SDS011;10350;51.280;12.400;2023-03-11T00:43:49;2.60;;;2.35;;
20381;SDS011;10350;51.280;12.400;2023-03-11T00:46:15;3.38;;;3.03;;
20381;SDS011;10350;51.280;12.400;2023-03-11T00:48:41;4.20;;;3.03;;
20381;SDS011;10350;51.280;12.400;2023-03-11T00:51:10;4.10;;;2.70;;
20381;SDS011;10350;51.280;12.400;2023-03-11T00:53:38;4.93;;;2.90;;
20381;SDS011;10350;51.280;12.400;2023-03-11T00:56:07;3.72;;;3.10;;
20381;SDS011;10350;51.280;12.400;2023-03-11T00:58:34;4.50;;;3.45;;
20381;SDS011;10350;51.280;12.400;2023-03-11T01:01:01;4.68;;;3.60;;
20381;SDS011;10350;51.280;12.400;2023-03-11T01:03:31;5.68;;;4.10;;
20381;SDS011;10350;51.280;12.400;2023-03-11T01:05:57;6.82;;;4.38;;
20381;SDS011;10350;51.280;12.400;2023-03-11T01:08:23;7.10;;;4.50;;
20381;SDS011;10350;51.280;12.400;2023-03-11T01:10:50;4.95;;;3.88;;
20381;SDS011;10350;51.280;12.400;2023-03-11T01:13:16;6.60;;;5.03;;
20381;SDS011;10350;51.280;12.400;2023-03-11T01:15:42;5.78;;;4.00;;
20381;SDS011;10350;51.280;12.400;2023-03-11T01:18:08;7.90;;;5.35;;
20381;SDS011;10350;51.280;12.400;2023-03-11T01:20:36;9.07;;;6.03;;
20381;SDS011;10350;51.280;12.400;2023-03-11T01:23:02;8.70;;;5.82;;
20381;SDS011;10350;51.280;12.400;2023-03-11T01:25:29;10.45;;;5.70;;
20381;SDS011;10350;51.280;12.400;2023-03-11T01:27:55;11.35;;;6.43;;
20381;SDS011;10350;51.280;12.400;2023-03-11T01:30:22;9.88;;;6.65;;
20381;SDS011;10350;51.280;12.400;2023-03-11T01:32:49;10.45;;;6.80;;
20381;SDS011;10350;51.280;12.400;2023-03-11T01:35:15;8.88;;;6.35;;
20381;SDS011;10350;51.280;12.400;2023-03-11T01:37:42;8.35;;;5.60;;
20381;SDS011;10350;51.280;12.400;2023-03-11T01:40:11;8.50;;;6.03;;
20381;SDS011;10350;51.280;12.400;2023-03-11T01:42:38;7.28;;;5.38;;
20381;SDS011;10350;51.280;12.400;2023-03-11T01:47:49;7.13;;;4.90;;
20381;SDS011;10350;51.280;12.400;2023-03-11T01:50:15;6.55;;;4.53;;
20381;SDS011;10350;51.280;12.400;2023-03-11T01:52:41;7.50;;;4.60;;
20381;SDS011;10350;51.280;12.400;2023-03-11T01:55:08;6.00;;;4.22;;
20381;SDS011;10350;51.280;12.400;2023-03-11T01:57:35;5.00;;;4.07;;
20381;SDS011;10350;51.280;12.400;2023-03-11T02:00:01;6.63;;;4.57;;
20381;SDS011;10350;51.280;12.400;2023-03-11T02:02:34;4.90;;;3.88;;
20381;SDS011;10350;51.280;12.400;2023-03-11T02:05:01;8.18;;;4.43;;
20381;SDS011;10350;51.280;12.400;2023-03-11T02:07:28;7.07;;;4.07;;
20381;SDS011;10350;51.280;12.400;2023-03-11T02:09:54;8.10;;;4.57;;
20381;SDS011;10350;51.280;12.400;2023-03-11T02:12:20;7.22;;;4.93;;
20381;SDS011;10350;51.280;12.400;2023-03-11T02:14:47;7.70;;;5.18;;
20381;SDS011;10350;51.280;12.400;2023-03-11T02:17:14;7.45;;;4.90;;
20381;SDS011;10350;51.280;12.400;2023-03-11T02:22:06;8.30;;;5.85;;
20381;SDS011;10350;51.280;12.400;2023-03-11T02:24:39;9.43;;;5.97;;
20381;SDS011;10350;51.280;12.400;2023-03-11T02:27:07;9.10;;;6.00;;
20381;SDS011;10350;51.280;12.400;2023-03-11T02:29:33;8.77;;;6.00;;
20381;SDS011;10350;51.280;12.400;2023-03-11T02:32:00;9.52;;;6.25;;
20381;SDS011;10350;51.280;12.400;2023-03-11T02:34:28;8.88;;;6.22;;
20381;SDS011;10350;51.280;12.400;2023-03-11T02:36:55;9.30;;;6.00;;
20381;SDS011;10350;51.280;12.400;2023-03-11T02:39:28;8.40;;;5.45;;
20381;SDS011;10350;51.280;12.400;2023-03-11T02:41:54;9.25;;;6.00;;
20381;SDS011;10350;51.280;12.400;2023-03-11T02:44:21;9.43;;;5.88;;
20381;SDS011;10350;51.280;12.400;2023-03-11T02:46:47;8.75;;;5.78;;
20381;SDS011;10350;51.280;12.400;2023-03-11T02:49:13;10.43;;;5.93;;
20381;SDS011;10350;51.280;12.400;2023-03-11T02:51:39;9.60;;;6.07;;
20381;SDS011;10350;51.280;12.400;2023-03-11T02:54:05;12.35;;;6.40;;
20381;SDS011;10350;51.280;12.400;2023-03-11T02:56:31;10.07;;;6.82;;
20381;SDS011;10350;51.280;12.400;2023-03-11T02:58:57;9.65;;;6.10;;
20381;SDS011;10350;51.280;12.400;2023-03-11T03:01:23;9.63;;;6.55;;
20381;SDS011;10350;51.280;12.400;2023-03-11T03:03:49;7.57;;;4.82;;
20381;SDS011;10350;51.280;12.400;2023-03-11T03:06:15;10.18;;;6.30;;
20381;SDS011;10350;51.280;12.400;2023-03-11T03:08:41;11.63;;;6.93;;
20381;SDS011;10350;51.280;12.400;2023-03-11T03:11:07;12.90;;;6.20;;
20381;SDS011;10350;51.280;12.400;2023-03-11T03:13:33;10.77;;;7.32;;
20381;SDS011;10350;51.280;12.400;2023-03-11T03:16:00;11.05;;;6.15;;
20381;SDS011;10350;51.280;12.400;2023-03-11T03:18:26;9.80;;;6.60;;
20381;SDS011;10350;51.280;12.400;2023-03-11T03:20:52;11.88;;;7.57;;
20381;SDS011;10350;51.280;12.400;2023-03-11T03:23:18;17.20;;;8.25;;
20381;SDS011;10350;51.280;12.400;2023-03-11T03:25:44;11.85;;;7.43;;
20381;SDS011;10350;51.280;12.400;2023-03-11T03:28:10;15.07;;;8.32;;
20381;SDS011;10350;51.280;12.400;2023-03-11T03:30:37;13.52;;;7.53;;
20381;SDS011;10350;51.280;12.400;2023-03-11T03:33:03;11.02;;;6.68;;
20381;SDS011;10350;51.280;12.400;2023-03-11T03:35:30;14.73;;;7.68;;
20381;SDS011;10350;51.280;12.400;2023-03-11T03:37:56;11.85;;;6.32;;
20381;SDS011;10350;51.280;12.400;2023-03-11T03:40:22;15.32;;;8.70;;
20381;SDS011;10350;51.280;12.400;2023-03-11T03:42:48;12.05;;;7.07;;
20381;SDS011;10350;51.280;12.400;2023-03-11T03:45:14;12.65;;;7.82;;
20381;SDS011;10350;51.280;12.400;2023-03-11T03:47:40;14.23;;;7.82;;
20381;SDS011;10350;51.280;12.400;2023-03-11T03:50:07;12.85;;;7.43;;
20381;SDS011;10350;51.280;12.400;2023-03-11T03:52:34;13.60;;;7.65;;
20381;SDS011;10350;51.280;12.400;2023-03-11T03:55:00;13.07;;;7.45;;
20381;SDS011;10350;51.280;12.400;2023-03-11T03:57:27;13.05;;;7.40;;
20381;SDS011;10350;51.280;12.400;2023-03-11T03:59:53;13.38;;;8.63;;
20381;SDS011;10350;51.280;12.400;2023-03-11T04:02:19;14.73;;;7.22;;
20381;SDS011;10350;51.280;12.400;2023-03-11T04:04:45;20.15;;;9.15;;
20381;SDS011;10350;51.280;12.400;2023-03-11T04:07:11;19.25;;;9.88;;
20381;SDS011;10350;51.280;12.400;2023-03-11T04:09:38;16.02;;;9.02;;
20381;SDS011;10350;51.280;12.400;2023-03-11T04:12:04;14.57;;;8.73;;
20381;SDS011;10350;51.280;12.400;2023-03-11T04:14:30;19.85;;;9.57;;
20381;SDS011;10350;51.280;12.400;2023-03-11T04:16:56;22.95;;;10.60;;
20381;SDS011;10350;51.280;12.400;2023-03-11T04:19:22;18.30;;;9.98;;
20381;SDS011;10350;51.280;12.400;2023-03-11T04:21:49;17.88;;;9.02;;
20381;SDS011;10350;51.280;12.400;2023-03-11T04:24:16;17.92;;;9.63;;
20381;SDS011;10350;51.280;12.400;2023-03-11T04:26:42;16.90;;;9.82;;
20381;SDS011;10350;51.280;12.400;2023-03-11T04:29:08;18.45;;;8.75;;
20381;SDS011;10350;51.280;12.400;2023-03-11T04:31:34;21.55;;;9.82;;
20381;SDS011;10350;51.280;12.400;2023-03-11T04:34:00;18.50;;;9.70;;
20381;SDS011;10350;51.280;12.400;2023-03-11T04:36:26;18.70;;;9.25;;
20381;SDS011;10350;51.280;12.400;2023-03-11T04:38:52;17.15;;;8.38;;
20381;SDS011;10350;51.280;12.400;2023-03-11T04:41:18;15.68;;;9.00;;
20381;SDS011;10350;51.280;12.400;2023-03-11T04:43:44;18.88;;;8.93;;
20381;SDS011;10350;51.280;12.400;2023-03-11T04:46:10;16.83;;;8.82;;
20381;SDS011;10350;51.280;12.400;2023-03-11T04:48:36;16.42;;;8.57;;
20381;SDS011;10350;51.280;12.400;2023-03-11T04:51:02;17.70;;;9.20;;
20381;SDS011;10350;51.280;12.400;2023-03-11T04:53:28;13.05;;;8.07;;
20381;SDS011;10350;51.280;12.400;2023-03-11T04:55:54;15.90;;;8.25;;
20381;SDS011;10350;51.280;12.400;2023-03-11T04:58:20;19.10;;;8.90;;
20381;SDS011;10350;51.280;12.400;2023-03-11T05:00:46;17.45;;;8.65;;
20381;SDS011;10350;51.280;12.400;2023-03-11T05:03:12;17.95;;;8.90;;
20381;SDS011;10350;51.280;12.400;2023-03-11T05:05:37;21.38;;;9.43;;
20381;SDS011;10350;51.280;12.400;2023-03-11T05:08:03;19.73;;;9.88;;
20381;SDS011;10350;51.280;12.400;2023-03-11T05:10:29;20.10;;;9.85;;
20381;SDS011;10350;51.280;12.400;2023-03-11T05:12:56;19.35;;;10.35;;
20381;SDS011;10350;51.280;12.400;2023-03-11T05:15:22;18.35;;;9.52;;
20381;SDS011;10350;51.280;12.400;2023-03-11T05:17:48;23.40;;;10.88;;
20381;SDS011;10350;51.280;12.400;2023-03-11T05:20:14;26.55;;;11.07;;
20381;SDS011;10350;51.280;12.400;2023-03-11T05:22:43;18.83;;;9.70;;
20381;SDS011;10350;51.280;12.400;2023-03-11T05:25:09;24.67;;;10.55;;
20381;SDS011;10350;51.280;12.400;2023-03-11T05:27:35;21.67;;;10.57;;
20381;SDS011;10350;51.280;12.400;2023-03-11T05:30:01;22.45;;;11.30;;
20381;SDS011;10350;51.280;12.400;2023-03-11T05:32:27;28.15;;;12.70;;
20381;SDS011;10350;51.280;12.400;2023-03-11T05:34:53;28.90;;;12.23;;
20381;SDS011;10350;51.280;12.400;2023-03-11T05:37:19;25.17;;;11.45;;
20381;SDS011;10350;51.280;12.400;2023-03-11T05:39:45;33.35;;;13.60;;
20381;SDS011;10350;51.280;12.400;2023-03-11T05:42:11;26.40;;;12.00;;
20381;SDS011;10350;51.280;12.400;2023-03-11T05:44:37;28.95;;;11.68;;
20381;SDS011;10350;51.280;12.400;2023-03-11T05:47:03;27.20;;;12.45;;
20381;SDS011;10350;51.280;12.400;2023-03-11T05:49:29;25.42;;;11.63;;
20381;SDS011;10350;51.280;12.400;2023-03-11T05:51:55;26.23;;;11.77;;
20381;SDS011;10350;51.280;12.400;2023-03-11T05:54:21;24.48;;;11.27;;
20381;SDS011;10350;51.280;12.400;2023-03-11T05:56:47;24.70;;;11.30;;
20381;SDS011;10350;51.280;12.400;2023-03-11T05:59:13;25.98;;;12.15;;
20381;SDS011;10350;51.280;12.400;2023-03-11T06:01:40;23.10;;;10.82;;
20381;SDS011;10350;51.280;12.400;2023-03-11T06:04:07;21.77;;;10.80;;
20381;SDS011;10350;51.280;12.400;2023-03-11T06:06:33;20.38;;;9.93;;
20381;SDS011;10350;51.280;12.400;2023-03-11T06:09:00;21.17;;;9.65;;
20381;SDS011;10350;51.280;12.400;2023-03-11T06:11:27;23.52;;;10.88;;
20381;SDS011;10350;51.280;12.400;2023-03-11T06:13:54;16.83;;;8.93;;
20381;SDS011;10350;51.280;12.400;2023-03-11T06:16:21;23.75;;;9.85;;
20381;SDS011;10350;51.280;12.400;2023-03-11T06:18:47;22.83;;;10.00;;
20381;SDS011;10350;51.280;12.400;2023-03-11T06:21:17;18.10;;;8.70;;
20381;SDS011;10350;51.280;12.400;2023-03-11T06:23:44;17.27;;;8.93;;
20381;SDS011;10350;51.280;12.400;2023-03-11T06:26:16;19.25;;;8.90;;
20381;SDS011;10350;51.280;12.400;2023-03-11T06:28:42;18.83;;;8.93;;
20381;SDS011;10350;51.280;12.400;2023-03-11T06:31:11;19.70;;;9.43;;
20381;SDS011;10350;51.280;12.400;2023-03-11T06:33:39;14.98;;;8.70;;
20381;SDS011;10350;51.280;12.400;2023-03-11T06:36:05;17.10;;;8.05;;
20381;SDS011;10350;51.280;12.400;2023-03-11T06:38:32;16.77;;;9.07;;
20381;SDS011;10350;51.280;12.400;2023-03-11T06:41:01;23.20;;;9.75;;
20381;SDS011;10350;51.280;12.400;2023-03-11T06:43:28;16.65;;;9.23;;
20381;SDS011;10350;51.280;12.400;2023-03-11T06:45:55;17.48;;;8.40;;
20381;SDS011;10350;51.280;12.400;2023-03-11T06:48:21;16.27;;;8.20;;
20381;SDS011;10350;51.280;12.400;2023-03-11T06:50:54;16.40;;;8.57;;
20381;SDS011;10350;51.280;12.400;2023-03-11T06:53:21;20.35;;;9.20;;
20381;SDS011;10350;51.280;12.400;2023-03-11T06:55:59;17.58;;;9.15;;
20381;SDS011;10350;51.280;12.400;2023-03-11T06:58:26;18.05;;;8.88;;
20381;SDS011;10350;51.280;12.400;2023-03-11T07:00:52;15.38;;;8.25;;
20381;SDS011;10350;51.280;12.400;2023-03-11T07:03:18;15.85;;;7.95;;
20381;SDS011;10350;51.280;12.400;2023-03-11T07:05:44;15.13;;;7.00;;
20381;SDS011;10350;51.280;12.400;2023-03-11T07:08:10;16.48;;;7.70;;
20381;SDS011;10350;51.280;12.400;2023-03-11T07:10:36;16.55;;;7.95;;
20381;SDS011;10350;51.280;12.400;2023-03-11T07:13:02;16.88;;;8.23;;
20381;SDS011;10350;51.280;12.400;2023-03-11T07:15:28;16.95;;;7.68;;
20381;SDS011;10350;51.280;12.400;2023-03-11T07:17:57;20.73;;;9.13;;
20381;SDS011;10350;51.280;12.400;2023-03-11T07:20:23;19.92;;;8.25;;
20381;SDS011;10350;51.280;12.400;2023-03-11T07:22:49;18.02;;;9.68;;
20381;SDS011;10350;51.280;12.400;2023-03-11T07:25:15;16.88;;;8.18;;
20381;SDS011;10350;51.280;12.400;2023-03-11T07:27:41;15.63;;;8.35;;
20381;SDS011;10350;51.280;12.400;2023-03-11T07:30:07;16.55;;;8.60;;
20381;SDS011;10350;51.280;12.400;2023-03-11T07:32:33;16.13;;;8.80;;
20381;SDS011;10350;51.280;12.400;2023-03-11T07:34:59;13.93;;;7.68;;
20381;SDS011;10350;51.280;12.400;2023-03-11T07:37:25;16.58;;;7.78;;
20381;SDS011;10350;51.280;12.400;2023-03-11T07:39:51;20.55;;;8.50;;
20381;SDS011;10350;51.280;12.400;2023-03-11T07:42:17;20.17;;;8.98;;
20381;SDS011;10350;51.280;12.400;2023-03-11T07:44:43;14.05;;;7.68;;
20381;SDS011;10350;51.280;12.400;2023-03-11T07:47:09;11.73;;;7.07;;
20381;SDS011;10350;51.280;12.400;2023-03-11T07:49:35;14.13;;;7.85;;
20381;SDS011;10350;51.280;12.400;2023-03-11T07:52:01;16.02;;;7.57;;
20381;SDS011;10350;51.280;12.400;2023-03-11T07:54:27;15.50;;;8.00;;
20381;SDS011;10350;51.280;12.400;2023-03-11T07:56:53;14.80;;;7.40;;
20381;SDS011;10350;51.280;12.400;2023-03-11T07:59:19;11.52;;;7.40;;
20381;SDS011;10350;51.280;12.400;2023-03-11T08:01:45;14.88;;;8.02;;
20381;SDS011;10350;51.280;12.400;2023-03-11T08:04:12;16.27;;;8.35;;
20381;SDS011;10350;51.280;12.400;2023-03-11T08:06:38;13.23;;;7.57;;
20381;SDS011;10350;51.280;12.400;2023-03-11T08:09:06;15.45;;;7.90;;
20381;SDS011;10350;51.280;12.400;2023-03-11T08:11:36;16.58;;;7.85;;
20381;SDS011;10350;51.280;12.400;2023-03-11T08:14:03;13.63;;;8.27;;
20381;SDS011;10350;51.280;12.400;2023-03-11T08:16:29;14.52;;;8.38;;
20381;SDS011;10350;51.280;12.400;2023-03-11T08:19:01;13.60;;;7.65;;
20381;SDS011;10350;51.280;12.400;2023-03-11T08:21:28;18.35;;;8.05;;
20381;SDS011;10350;51.280;12.400;2023-03-11T08:23:56;13.90;;;7.57;;
20381;SDS011;10350;51.280;12.400;2023-03-11T08:26:22;17.55;;;8.20;;
20381;SDS011;10350;51.280;12.400;2023-03-11T08:28:49;13.77;;;7.15;;
20381;SDS011;10350;51.280;12.400;2023-03-11T08:31:15;17.48;;;8.02;;
20381;SDS011;10350;51.280;12.400;2023-03-11T08:33:42;15.93;;;8.52;;
20381;SDS011;10350;51.280;12.400;2023-03-11T08:36:08;15.82;;;9.35;;
20381;SDS011;10350;51.280;12.400;2023-03-11T08:38:34;12.35;;;7.68;;
20381;SDS011;10350;51.280;12.400;2023-03-11T08:41:00;15.73;;;8.77;;
20381;SDS011;10350;51.280;12.400;2023-03-11T08:43:26;16.17;;;8.52;;
20381;SDS011;10350;51.280;12.400;2023-03-11T08:45:52;17.35;;;7.80;;
20381;SDS011;10350;51.280;12.400;2023-03-11T08:48:18;12.60;;;7.78;;
20381;SDS011;10350;51.280;12.400;2023-03-11T08:50:44;15.15;;;7.88;;
20381;SDS011;10350;51.280;12.400;2023-03-11T08:53:10;16.15;;;8.07;;
20381;SDS011;10350;51.280;12.400;2023-03-11T08:55:36;11.07;;;6.45;;
20381;SDS011;10350;51.280;12.400;2023-03-11T08:58:02;13.48;;;6.97;;
20381;SDS011;10350;51.280;12.400;2023-03-11T09:00:28;15.45;;;8.13;;
20381;SDS011;10350;51.280;12.400;2023-03-11T09:02:54;12.95;;;7.25;;
20381;SDS011;10350;51.280;12.400;2023-03-11T09:05:20;20.08;;;7.55;;
20381;SDS011;10350;51.280;12.400;2023-03-11T09:07:46;15.57;;;8.63;;
20381;SDS011;10350;51.280;12.400;2023-03-11T09:10:13;17.63;;;8.50;;
20381;SDS011;10350;51.280;12.400;2023-03-11T09:12:39;20.67;;;8.23;;
20381;SDS011;10350;51.280;12.400;2023-03-11T09:15:05;19.60;;;8.32;;
20381;SDS011;10350;51.280;12.400;2023-03-11T09:17:31;19.85;;;8.48;;
20381;SDS011;10350;51.280;12.400;2023-03-11T09:19:57;15.60;;;9.52;;
20381;SDS011;10350;51.280;12.400;2023-03-11T09:22:23;14.95;;;8.45;;
20381;SDS011;10350;51.280;12.400;2023-03-11T09:24:49;14.65;;;7.88;;
20381;SDS011;10350;51.280;12.400;2023-03-11T09:27:15;14.40;;;8.15;;
20381;SDS011;10350;51.280;12.400;2023-03-11T09:29:41;14.77;;;8.35;;
20381;SDS011;10350;51.280;12.400;2023-03-11T09:32:08;17.70;;;8.43;;
20381;SDS011;10350;51.280;12.400;2023-03-11T09:34:36;14.82;;;8.52;;
20381;SDS011;10350;51.280;12.400;2023-03-11T09:37:02;21.85;;;8.20;;
20381;SDS011;10350;51.280;12.400;2023-03-11T09:39:28;18.20;;;8.75;;
20381;SDS011;10350;51.280;12.400;2023-03-11T09:41:55;12.75;;;7.68;;
20381;SDS011;10350;51.280;12.400;2023-03-11T09:44:42;16.15;;;8.13;;
20381;SDS011;10350;51.280;12.400;2023-03-11T09:50:14;14.70;;;8.85;;
20381;SDS011;10350;51.280;12.400;2023-03-11T09:52:49;20.35;;;8.40;;
20381;SDS011;10350;51.280;12.400;2023-03-11T09:55:24;14.25;;;8.27;;
20381;SDS011;10350;51.280;12.400;2023-03-11T09:57:52;12.73;;;8.02;;
20381;SDS011;10350;51.280;12.400;2023-03-11T10:00:18;14.73;;;8.10;;
20381;SDS011;10350;51.280;12.400;2023-03-11T10:02:46;14.73;;;8.48;;
20381;SDS011;10350;51.280;12.400;2023-03-11T10:05:18;12.85;;;8.60;;
20381;SDS011;10350;51.280;12.400;2023-03-11T10:07:46;14.52;;;8.10;;
20381;SDS011;10350;51.280;12.400;2023-03-11T10:10:14;18.40;;;8.80;;
20381;SDS011;10350;51.280;12.400;2023-03-11T10:15:34;15.73;;;8.23;;
20381;SDS011;10350;51.280;12.400;2023-03-11T10:21:34;18.38;;;7.93;;
20381;SDS011;10350;51.280;12.400;2023-03-11T10:28:48;15.25;;;8.80;;
20381;SDS011;10350;51.280;12.400;2023-03-11T10:31:20;12.93;;;8.45;;
20381;SDS011;10350;51.280;12.400;2023-03-11T10:33:54;14.80;;;7.40;;
20381;SDS011;10350;51.280;12.400;2023-03-11T10:36:22;11.18;;;7.18;;
20381;SDS011;10350;51.280;12.400;2023-03-11T10:38:51;12.35;;;6.95;;
20381;SDS011;10350;51.280;12.400;2023-03-11T10:41:19;17.42;;;7.40;;
20381;SDS011;10350;51.280;12.400;2023-03-11T10:44:05;11.45;;;6.90;;
20381;SDS011;10350;51.280;12.400;2023-03-11T10:46:31;10.73;;;6.65;;
20381;SDS011;10350;51.280;12.400;2023-03-11T10:48:57;10.93;;;7.38;;
20381;SDS011;10350;51.280;12.400;2023-03-11T10:51:25;10.98;;;6.53;;
20381;SDS011;10350;51.280;12.400;2023-03-11T10:53:52;15.45;;;6.75;;
20381;SDS011;10350;51.280;12.400;2023-03-11T10:58:56;13.82;;;6.75;;
20381;SDS011;10350;51.280;12.400;2023-03-11T11:01:23;10.98;;;6.88;;
20381;SDS011;10350;51.280;12.400;2023-03-11T11:03:50;11.30;;;6.80;;
20381;SDS011;10350;51.280;12.400;2023-03-11T11:11:40;9.88;;;6.38;;
20381;SDS011;10350;51.280;12.400;2023-03-11T11:14:06;13.43;;;6.97;;
20381;SDS011;10350;51.280;12.400;2023-03-11T11:16:33;11.73;;;7.30;;
20381;SDS011;10350;51.280;12.400;2023-03-11T11:21:33;11.65;;;7.28;;
20381;SDS011;10350;51.280;12.400;2023-03-11T11:27:05;11.77;;;7.18;;
20381;SDS011;10350;51.280;12.400;2023-03-11T11:29:38;11.32;;;8.13;;
20381;SDS011;10350;51.280;12.400;2023-03-11T11:32:18;11.43;;;7.32;;
20381;SDS011;10350;51.280;12.400;2023-03-11T11:34:52;9.65;;;6.63;;
20381;SDS011;10350;51.280;12.400;2023-03-11T11:37:19;11.32;;;7.05;;
20381;SDS011;10350;51.280;12.400;2023-03-11T11:39:52;14.07;;;7.28;;
20381;SDS011;10350;51.280;12.400;2023-03-11T11:42:20;12.52;;;6.70;;
20381;SDS011;10350;51.280;12.400;2023-03-11T11:44:48;11.30;;;7.57;;
20381;SDS011;10350;51.280;12.400;2023-03-11T11:49:43;12.32;;;7.35;;
20381;SDS011;10350;51.280;12.400;2023-03-11T11:52:14;9.32;;;6.32;;
20381;SDS011;10350;51.280;12.400;2023-03-11T11:54:51;11.63;;;6.60;;
20381;SDS011;10350;51.280;12.400;2023-03-11T11:57:19;11.02;;;6.93;;
20381;SDS011;10350;51.280;12.400;2023-03-11T11:59:46;14.43;;;7.38;;
20381;SDS011;10350;51.280;12.400;2023-03-11T12:07:56;12.27;;;6.50;;
20381;SDS011;10350;51.280;12.400;2023-03-11T12:15:38;9.25;;;6.45;;
20381;SDS011;10350;51.280;12.400;2023-03-11T12:18:09;9.07;;;6.32;;
20381;SDS011;10350;51.280;12.400;2023-03-11T12:20:40;12.02;;;6.60;;
20381;SDS011;10350;51.280;12.400;2023-03-11T12:23:17;9.75;;;6.50;;
20381;SDS011;10350;51.280;12.400;2023-03-11T12:29:11;9.80;;;6.43;;
20381;SDS011;10350;51.280;12.400;2023-03-11T12:31:17;13.77;;;6.80;;
20381;SDS011;10350;51.280;12.400;2023-03-11T12:33:45;10.10;;;6.75;;
20381;SDS011;10350;51.280;12.400;2023-03-11T12:38:39;10.07;;;5.95;;
20381;SDS011;10350;51.280;12.400;2023-03-11T12:41:26;11.05;;;5.40;;
20381;SDS011;10350;51.280;12.400;2023-03-11T12:46:17;9.20;;;4.88;;
20381;SDS011;10350;51.280;12.400;2023-03-11T12:48:48;6.97;;;5.28;;
20381;SDS011;10350;51.280;12.400;2023-03-11T13:07:46;5.88;;;4.60;;
20381;SDS011;10350;51.280;12.400;2023-03-11T13:10:17;5.70;;;3.53;;
20381;SDS011;10350;51.280;12.400;2023-03-11T13:12:45;10.88;;;5.47;;
20381;SDS011;10350;51.280;12.400;2023-03-11T13:17:40;6.97;;;5.53;;
20381;SDS011;10350;51.280;12.400;2023-03-11T13:20:37;7.97;;;5.45;;
20381;SDS011;10350;51.280;12.400;2023-03-11T13:27:51;6.10;;;4.97;;
20381;SDS011;10350;51.280;12.400;2023-03-11T13:37:48;9.98;;;5.88;;
20381;SDS011;10350;51.280;12.400;2023-03-11T13:40:31;5.50;;;4.90;;
20381;SDS011;10350;51.280;12.400;2023-03-11T13:43:01;7.57;;;5.20;;
20381;SDS011;10350;51.280;12.400;2023-03-11T13:45:37;7.30;;;5.55;;
20381;SDS011;10350;51.280;12.400;2023-03-11T13:48:06;10.77;;;5.40;;
20381;SDS011;10350;51.280;12.400;2023-03-11T13:50:37;6.35;;;4.80;;
20381;SDS011;10350;51.280;12.400;2023-03-11T13:53:08;5.80;;;4.65;;
20381;SDS011;10350;51.280;12.400;2023-03-11T13:55:43;5.97;;;5.22;;
20381;SDS011;10350;51.280;12.400;2023-03-11T13:58:28;8.00;;;5.45;;
20381;SDS011;10350;51.280;12.400;2023-03-11T14:00:58;5.82;;;5.22;;
20381;SDS011;10350;51.280;12.400;2023-03-11T14:03:25;8.52;;;5.70;;
20381;SDS011;10350;51.280;12.400;2023-03-11T14:06:05;5.45;;;4.88;;
20381;SDS011;10350;51.280;12.400;2023-03-11T14:08:34;8.98;;;5.38;;
20381;SDS011;10350;51.280;12.400;2023-03-11T14:13:37;5.93;;;4.80;;
20381;SDS011;10350;51.280;12.400;2023-03-11T14:19:05;7.15;;;5.28;;
20381;SDS011;10350;51.280;12.400;2023-03-11T14:21:46;8.30;;;5.93;;
20381;SDS011;10350;51.280;12.400;2023-03-11T14:24:21;6.13;;;5.20;;
20381;SDS011;10350;51.280;12.400;2023-03-11T14:26:56;6.95;;;5.45;;
20381;SDS011;10350;51.280;12.400;2023-03-11T14:29:39;6.05;;;5.05;;
20381;SDS011;10350;51.280;12.400;2023-03-11T14:32:28;8.25;;;5.88;;
20381;SDS011;10350;51.280;12.400;2023-03-11T14:35:15;8.15;;;5.22;;
20381;SDS011;10350;51.280;12.400;2023-03-11T14:37:43;8.02;;;5.25;;
20381;SDS011;10350;51.280;12.400;2023-03-11T14:40:27;7.28;;;5.30;;
20381;SDS011;10350;51.280;12.400;2023-03-11T14:42:56;5.75;;;4.75;;
20381;SDS011;10350;51.280;12.400;2023-03-11T14:45:42;5.95;;;4.70;;
20381;SDS011;10350;51.280;12.400;2023-03-11T14:48:15;6.47;;;4.38;;
20381;SDS011;10350;51.280;12.400;2023-03-11T14:50:45;4.97;;;4.15;;
20381;SDS011;10350;51.280;12.400;2023-03-11T15:06:34;6.22;;;4.40;;
20381;SDS011;10350;51.280;12.400;2023-03-11T15:14:27;9.63;;;4.00;;
20381;SDS011;10350;51.280;12.400;2023-03-11T15:16:53;5.20;;;3.30;;
20381;SDS011;10350;51.280;12.400;2023-03-11T15:21:52;3.97;;;3.67;;
20381;SDS011;10350;51.280;12.400;2023-03-11T15:24:20;3.75;;;3.45;;
20381;SDS011;10350;51.280;12.400;2023-03-11T15:26:56;3.77;;;3.43;;
20381;SDS011;10350;51.280;12.400;2023-03-11T15:29:23;3.95;;;3.65;;
20381;SDS011;10350;51.280;12.400;2023-03-11T15:31:49;6.70;;;3.70;;
20381;SDS011;10350;51.280;12.400;2023-03-11T15:39:15;4.53;;;3.25;;
20381;SDS011;10350;51.280;12.400;2023-03-11T15:41:42;5.25;;;4.10;;
20381;SDS011;10350;51.280;12.400;2023-03-11T15:46:46;5.15;;;4.18;;
20381;SDS011;10350;51.280;12.400;2023-03-11T15:49:12;5.78;;;3.42;;
20381;SDS011;10350;51.280;12.400;2023-03-11T15:51:38;4.38;;;3.63;;
20381;SDS011;10350;51.280;12.400;2023-03-11T15:54:04;4.93;;;4.15;;
20381;SDS011;10350;51.280;12.400;2023-03-11T15:56:30;6.95;;;3.95;;
20381;SDS011;10350;51.280;12.400;2023-03-11T15:58:57;8.98;;;3.90;;
20381;SDS011;10350;51.280;12.400;2023-03-11T16:01:23;6.20;;;3.00;;
20381;SDS011;10350;51.280;12.400;2023-03-11T16:03:52;4.50;;;3.38;;
20381;SDS011;10350;51.280;12.400;2023-03-11T16:06:18;6.03;;;3.58;;
20381;SDS011;10350;51.280;12.400;2023-03-11T16:08:46;6.05;;;3.60;;
20381;SDS011;10350;51.280;12.400;2023-03-11T16:11:12;4.95;;;3.53;;
20381;SDS011;10350;51.280;12.400;2023-03-11T16:13:38;5.80;;;3.42;;
20381;SDS011;10350;51.280;12.400;2023-03-11T16:16:04;4.53;;;3.72;;
20381;SDS011;10350;51.280;12.400;2023-03-11T16:18:30;4.00;;;3.10;;
20381;SDS011;10350;51.280;12.400;2023-03-11T16:20:57;3.45;;;3.15;;
20381;SDS011;10350;51.280;12.400;2023-03-11T16:23:28;6.97;;;3.53;;
20381;SDS011;10350;51.280;12.400;2023-03-11T16:25:56;3.45;;;3.15;;
20381;SDS011;10350;51.280;12.400;2023-03-11T16:28:23;5.05;;;2.97;;
20381;SDS011;10350;51.280;12.400;2023-03-11T16:30:49;3.58;;;3.15;;